sensor_id;sensor_type;location;lat;lon;timestamp;P1;durP1;ratioP1;P2;durP2;ratioP2
7879;SDS011;3985;49.366;2.738;2022-08-19T00:00:30;24.00;;;23.50;;
7879;SDS011;3985;49.366;2.738;2022-08-19T00:02:57;17.25;;;17.00;;
7879;SDS011;3985;49.366;2.738;2022-08-19T00:05:24;17.25;;;17.25;;
7879;SDS011;3985;49.366;2.738;2022-08-19T00:07:53;17.50;;;17.50;;
7879;SDS011;3985;49.366;2.738;2022-08-19T00:10:20;18.75;;;18.25;;
7879;SDS011;3985;49.366;2.738;2022-08-19T00:12:49;16.50;;;15.50;;
7879;SDS011;3985;49.366;2.738;2022-08-19T00:15:20;15.75;;;14.50;;
7879;SDS011;3985;49.366;2.738;2022-08-19T00:17:48;19.00;;;17.75;;
7879;SDS011;3985;49.366;2.738;2022-08-19T00:20:16;18.25;;;15.25;;
7879;SDS011;3985;49.366;2.738;2022-08-19T00:22:45;23.75;;;18.50;;
7879;SDS011;3985;49.366;2.738;2022-08-19T00:25:15;15.50;;;14.50;;
7879;SDS011;3985;49.366;2.738;2022-08-19T00:27:43;19.00;;;19.00;;
7879;SDS011;3985;49.366;2.738;2022-08-19T00:30:11;24.75;;;22.50;;
7879;SDS011;3985;49.366;2.738;2022-08-19T00:32:38;16.75;;;16.75;;
7879;SDS011;3985;49.366;2.738;2022-08-19T00:35:06;24.50;;;23.00;;
7879;SDS011;3985;49.366;2.738;2022-08-19T00:37:34;19.50;;;14.50;;
7879;SDS011;3985;49.366;2.738;2022-08-19T00:40:02;17.50;;;17.00;;
7879;SDS011;3985;49.366;2.738;2022-08-19T00:42:32;22.75;;;18.00;;
7879;SDS011;3985;49.366;2.738;2022-08-19T00:45:00;22.75;;;21.25;;
7879;SDS011;3985;49.366;2.738;2022-08-19T00:47:28;17.00;;;16.50;;
7879;SDS011;3985;49.366;2.738;2022-08-19T00:49:56;24.50;;;17.25;;
7879;SDS011;3985;49.366;2.738;2022-08-19T00:52:26;19.50;;;18.25;;
7879;SDS011;3985;49.366;2.738;2022-08-19T00:54:56;18.50;;;18.50;;
7879;SDS011;3985;49.366;2.738;2022-08-19T00:57:27;22.25;;;22.25;;
7879;SDS011;3985;49.366;2.738;2022-08-19T00:59:57;23.50;;;21.25;;
7879;SDS011;3985;49.366;2.738;2022-08-19T01:02:25;22.75;;;22.75;;
7879;SDS011;3985;49.366;2.738;2022-08-19T01:04:53;21.50;;;21.50;;
7879;SDS011;3985;49.366;2.738;2022-08-19T01:07:21;25.75;;;23.50;;
7879;SDS011;3985;49.366;2.738;2022-08-19T01:09:49;24.25;;;23.25;;
7879;SDS011;3985;49.366;2.738;2022-08-19T01:12:16;17.75;;;16.00;;
7879;SDS011;3985;49.366;2.738;2022-08-19T01:14:43;26.75;;;23.50;;
7879;SDS011;3985;49.366;2.738;2022-08-19T01:17:13;22.75;;;22.75;;
7879;SDS011;3985;49.366;2.738;2022-08-19T01:19:44;27.50;;;24.25;;
7879;SDS011;3985;49.366;2.738;2022-08-19T01:22:15;18.00;;;18.00;;
7879;SDS011;3985;49.366;2.738;2022-08-19T01:24:50;21.25;;;19.75;;
7879;SDS011;3985;49.366;2.738;2022-08-19T01:27:18;24.25;;;24.25;;
7879;SDS011;3985;49.366;2.738;2022-08-19T01:29:45;29.50;;;25.75;;
7879;SDS011;3985;49.366;2.738;2022-08-19T01:32:15;22.50;;;20.75;;
7879;SDS011;3985;49.366;2.738;2022-08-19T01:34:44;23.75;;;22.50;;
7879;SDS011;3985;49.366;2.738;2022-08-19T01:37:12;25.25;;;24.50;;
7879;SDS011;3985;49.366;2.738;2022-08-19T01:39:41;21.50;;;21.50;;
7879;SDS011;3985;49.366;2.738;2022-08-19T01:42:10;27.25;;;22.50;;
7879;SDS011;3985;49.366;2.738;2022-08-19T01:44:38;24.33;;;24.00;;
7879;SDS011;3985;49.366;2.738;2022-08-19T01:47:06;22.75;;;20.00;;
7879;SDS011;3985;49.366;2.738;2022-08-19T01:49:34;27.33;;;26.00;;
7879;SDS011;3985;49.366;2.738;2022-08-19T01:52:03;26.00;;;26.00;;
7879;SDS011;3985;49.366;2.738;2022-08-19T01:54:31;21.75;;;21.75;;
7879;SDS011;3985;49.366;2.738;2022-08-19T01:57:01;24.00;;;24.00;;
7879;SDS011;3985;49.366;2.738;2022-08-19T01:59:33;24.75;;;23.25;;
7879;SDS011;3985;49.366;2.738;2022-08-19T02:02:01;25.75;;;25.75;;
7879;SDS011;3985;49.366;2.738;2022-08-19T02:04:29;23.50;;;22.75;;
7879;SDS011;3985;49.366;2.738;2022-08-19T02:06:57;26.75;;;24.00;;
7879;SDS011;3985;49.366;2.738;2022-08-19T02:09:24;21.75;;;21.75;;
7879;SDS011;3985;49.366;2.738;2022-08-19T02:11:51;17.25;;;17.25;;
7879;SDS011;3985;49.366;2.738;2022-08-19T02:14:19;25.25;;;21.25;;
7879;SDS011;3985;49.366;2.738;2022-08-19T02:16:50;27.75;;;24.75;;
7879;SDS011;3985;49.366;2.738;2022-08-19T02:19:18;24.25;;;23.25;;
7879;SDS011;3985;49.366;2.738;2022-08-19T02:21:45;26.67;;;26.00;;
7879;SDS011;3985;49.366;2.738;2022-08-19T02:24:12;23.00;;;22.75;;
7879;SDS011;3985;49.366;2.738;2022-08-19T02:26:39;25.50;;;25.50;;
7879;SDS011;3985;49.366;2.738;2022-08-19T02:29:07;24.25;;;22.75;;
7879;SDS011;3985;49.366;2.738;2022-08-19T02:31:34;17.00;;;17.00;;
7879;SDS011;3985;49.366;2.738;2022-08-19T02:34:03;25.75;;;25.00;;
7879;SDS011;3985;49.366;2.738;2022-08-19T02:36:30;23.00;;;22.00;;
7879;SDS011;3985;49.366;2.738;2022-08-19T02:39:00;26.50;;;24.75;;
7879;SDS011;3985;49.366;2.738;2022-08-19T02:41:28;29.25;;;27.25;;
7879;SDS011;3985;49.366;2.738;2022-08-19T02:43:57;24.75;;;23.25;;
7879;SDS011;3985;49.366;2.738;2022-08-19T02:46:29;27.00;;;27.00;;
7879;SDS011;3985;49.366;2.738;2022-08-19T02:48:59;29.50;;;26.00;;
7879;SDS011;3985;49.366;2.738;2022-08-19T02:51:32;24.00;;;21.50;;
7879;SDS011;3985;49.366;2.738;2022-08-19T02:54:01;18.75;;;17.00;;
7879;SDS011;3985;49.366;2.738;2022-08-19T02:56:29;27.00;;;24.50;;
7879;SDS011;3985;49.366;2.738;2022-08-19T02:58:57;19.00;;;17.50;;
7879;SDS011;3985;49.366;2.738;2022-08-19T03:01:25;25.00;;;23.50;;
7879;SDS011;3985;49.366;2.738;2022-08-19T03:03:53;26.50;;;26.50;;
7879;SDS011;3985;49.366;2.738;2022-08-19T03:06:21;28.00;;;24.75;;
7879;SDS011;3985;49.366;2.738;2022-08-19T03:08:50;23.00;;;22.50;;
7879;SDS011;3985;49.366;2.738;2022-08-19T03:11:19;21.25;;;20.50;;
7879;SDS011;3985;49.366;2.738;2022-08-19T03:13:47;23.75;;;22.75;;
7879;SDS011;3985;49.366;2.738;2022-08-19T03:16:16;23.00;;;22.50;;
7879;SDS011;3985;49.366;2.738;2022-08-19T03:18:43;24.50;;;21.50;;
7879;SDS011;3985;49.366;2.738;2022-08-19T03:21:14;22.75;;;22.75;;
7879;SDS011;3985;49.366;2.738;2022-08-19T03:23:41;23.25;;;23.25;;
7879;SDS011;3985;49.366;2.738;2022-08-19T03:26:10;27.50;;;22.75;;
7879;SDS011;3985;49.366;2.738;2022-08-19T03:28:39;23.00;;;22.75;;
7879;SDS011;3985;49.366;2.738;2022-08-19T03:31:08;21.50;;;19.50;;
7879;SDS011;3985;49.366;2.738;2022-08-19T03:33:36;25.00;;;23.75;;
7879;SDS011;3985;49.366;2.738;2022-08-19T03:36:06;25.00;;;20.25;;
7879;SDS011;3985;49.366;2.738;2022-08-19T03:38:36;27.75;;;22.00;;
7879;SDS011;3985;49.366;2.738;2022-08-19T03:41:06;20.50;;;20.50;;
7879;SDS011;3985;49.366;2.738;2022-08-19T03:43:36;20.00;;;20.00;;
7879;SDS011;3985;49.366;2.738;2022-08-19T03:46:05;18.00;;;16.75;;
7879;SDS011;3985;49.366;2.738;2022-08-19T03:48:33;22.50;;;22.50;;
7879;SDS011;3985;49.366;2.738;2022-08-19T03:51:02;19.50;;;19.50;;
7879;SDS011;3985;49.366;2.738;2022-08-19T03:53:30;22.50;;;19.00;;
7879;SDS011;3985;49.366;2.738;2022-08-19T03:56:01;18.50;;;16.00;;
7879;SDS011;3985;49.366;2.738;2022-08-19T03:58:31;22.25;;;20.00;;
7879;SDS011;3985;49.366;2.738;2022-08-19T04:01:00;18.25;;;17.25;;
7879;SDS011;3985;49.366;2.738;2022-08-19T04:03:28;21.50;;;19.75;;
7879;SDS011;3985;49.366;2.738;2022-08-19T04:05:55;21.25;;;19.75;;
7879;SDS011;3985;49.366;2.738;2022-08-19T04:08:22;20.00;;;19.50;;
7879;SDS011;3985;49.366;2.738;2022-08-19T04:10:50;17.75;;;16.50;;
7879;SDS011;3985;49.366;2.738;2022-08-19T04:13:17;21.00;;;19.50;;
7879;SDS011;3985;49.366;2.738;2022-08-19T04:15:45;20.25;;;20.25;;
7879;SDS011;3985;49.366;2.738;2022-08-19T04:18:14;20.25;;;18.25;;
7879;SDS011;3985;49.366;2.738;2022-08-19T04:20:42;19.00;;;16.75;;
7879;SDS011;3985;49.366;2.738;2022-08-19T04:23:11;18.00;;;18.00;;
7879;SDS011;3985;49.366;2.738;2022-08-19T04:25:39;20.50;;;20.25;;
7879;SDS011;3985;49.366;2.738;2022-08-19T04:28:08;25.25;;;23.00;;
7879;SDS011;3985;49.366;2.738;2022-08-19T04:30:39;26.25;;;22.75;;
7879;SDS011;3985;49.366;2.738;2022-08-19T04:33:07;18.75;;;18.75;;
7879;SDS011;3985;49.366;2.738;2022-08-19T04:35:37;25.75;;;22.25;;
7879;SDS011;3985;49.366;2.738;2022-08-19T04:38:05;20.50;;;20.00;;
7879;SDS011;3985;49.366;2.738;2022-08-19T04:40:33;22.00;;;20.75;;
7879;SDS011;3985;49.366;2.738;2022-08-19T04:43:23;25.00;;;22.00;;
7879;SDS011;3985;49.366;2.738;2022-08-19T04:45:50;18.00;;;16.50;;
7879;SDS011;3985;49.366;2.738;2022-08-19T04:48:17;21.25;;;18.75;;
7879;SDS011;3985;49.366;2.738;2022-08-19T04:50:52;20.25;;;19.50;;
7879;SDS011;3985;49.366;2.738;2022-08-19T04:53:22;16.00;;;15.00;;
7879;SDS011;3985;49.366;2.738;2022-08-19T04:55:53;15.25;;;15.25;;
7879;SDS011;3985;49.366;2.738;2022-08-19T04:58:21;15.00;;;14.75;;
7879;SDS011;3985;49.366;2.738;2022-08-19T05:00:49;18.50;;;18.50;;
7879;SDS011;3985;49.366;2.738;2022-08-19T05:03:16;19.75;;;18.25;;
7879;SDS011;3985;49.366;2.738;2022-08-19T05:05:44;20.25;;;18.50;;
7879;SDS011;3985;49.366;2.738;2022-08-19T05:08:16;23.75;;;22.50;;
7879;SDS011;3985;49.366;2.738;2022-08-19T05:10:46;16.75;;;16.75;;
7879;SDS011;3985;49.366;2.738;2022-08-19T05:13:14;20.00;;;18.00;;
7879;SDS011;3985;49.366;2.738;2022-08-19T05:15:42;17.00;;;16.00;;
7879;SDS011;3985;49.366;2.738;2022-08-19T05:18:09;18.50;;;13.75;;
7879;SDS011;3985;49.366;2.738;2022-08-19T05:20:54;15.25;;;14.25;;
7879;SDS011;3985;49.366;2.738;2022-08-19T05:23:40;17.75;;;17.00;;
7879;SDS011;3985;49.366;2.738;2022-08-19T05:26:09;19.00;;;16.50;;
7879;SDS011;3985;49.366;2.738;2022-08-19T05:28:36;18.00;;;14.25;;
7879;SDS011;3985;49.366;2.738;2022-08-19T05:31:03;20.50;;;15.75;;
7879;SDS011;3985;49.366;2.738;2022-08-19T05:33:31;19.00;;;19.00;;
7879;SDS011;3985;49.366;2.738;2022-08-19T05:35:58;21.50;;;20.00;;
7879;SDS011;3985;49.366;2.738;2022-08-19T05:38:25;16.00;;;12.25;;
7879;SDS011;3985;49.366;2.738;2022-08-19T05:40:55;28.75;;;21.00;;
7879;SDS011;3985;49.366;2.738;2022-08-19T05:43:22;18.75;;;18.00;;
7879;SDS011;3985;49.366;2.738;2022-08-19T05:45:50;22.00;;;17.75;;
7879;SDS011;3985;49.366;2.738;2022-08-19T05:48:18;16.75;;;14.00;;
7879;SDS011;3985;49.366;2.738;2022-08-19T05:50:45;18.75;;;18.75;;
7879;SDS011;3985;49.366;2.738;2022-08-19T05:53:15;11.00;;;11.00;;
7879;SDS011;3985;49.366;2.738;2022-08-19T05:55:42;19.50;;;17.75;;
7879;SDS011;3985;49.366;2.738;2022-08-19T05:58:11;19.00;;;16.75;;
7879;SDS011;3985;49.366;2.738;2022-08-19T06:00:38;16.25;;;16.25;;
7879;SDS011;3985;49.366;2.738;2022-08-19T06:03:06;19.25;;;19.25;;
7879;SDS011;3985;49.366;2.738;2022-08-19T06:05:33;20.75;;;18.75;;
7879;SDS011;3985;49.366;2.738;2022-08-19T06:08:03;17.00;;;17.00;;
7879;SDS011;3985;49.366;2.738;2022-08-19T06:10:32;20.25;;;18.75;;
7879;SDS011;3985;49.366;2.738;2022-08-19T06:13:00;18.50;;;17.50;;
7879;SDS011;3985;49.366;2.738;2022-08-19T06:15:29;12.75;;;12.75;;
7879;SDS011;3985;49.366;2.738;2022-08-19T06:17:57;18.00;;;15.75;;
7879;SDS011;3985;49.366;2.738;2022-08-19T06:20:24;19.50;;;19.50;;
7879;SDS011;3985;49.366;2.738;2022-08-19T06:22:51;21.00;;;18.50;;
7879;SDS011;3985;49.366;2.738;2022-08-19T06:25:19;19.00;;;19.00;;
7879;SDS011;3985;49.366;2.738;2022-08-19T06:27:46;13.75;;;13.75;;
7879;SDS011;3985;49.366;2.738;2022-08-19T06:30:14;14.00;;;14.00;;
7879;SDS011;3985;49.366;2.738;2022-08-19T06:32:45;15.75;;;15.00;;
7879;SDS011;3985;49.366;2.738;2022-08-19T06:35:15;16.75;;;15.75;;
7879;SDS011;3985;49.366;2.738;2022-08-19T06:37:42;18.00;;;17.25;;
7879;SDS011;3985;49.366;2.738;2022-08-19T06:40:10;11.75;;;11.75;;
7879;SDS011;3985;49.366;2.738;2022-08-19T06:42:38;14.00;;;13.75;;
7879;SDS011;3985;49.366;2.738;2022-08-19T06:45:05;17.50;;;13.75;;
7879;SDS011;3985;49.366;2.738;2022-08-19T06:47:33;14.50;;;14.50;;
7879;SDS011;3985;49.366;2.738;2022-08-19T06:50:02;17.00;;;15.50;;
7879;SDS011;3985;49.366;2.738;2022-08-19T06:52:32;11.50;;;10.75;;
7879;SDS011;3985;49.366;2.738;2022-08-19T06:55:00;13.50;;;13.50;;
7879;SDS011;3985;49.366;2.738;2022-08-19T06:57:29;11.00;;;11.00;;
7879;SDS011;3985;49.366;2.738;2022-08-19T06:59:57;13.00;;;12.50;;
7879;SDS011;3985;49.366;2.738;2022-08-19T07:02:25;15.50;;;13.50;;
7879;SDS011;3985;49.366;2.738;2022-08-19T07:04:53;11.00;;;11.00;;
7879;SDS011;3985;49.366;2.738;2022-08-19T07:07:24;18.25;;;13.75;;
7879;SDS011;3985;49.366;2.738;2022-08-19T07:09:51;18.75;;;16.75;;
7879;SDS011;3985;49.366;2.738;2022-08-19T07:12:19;14.50;;;14.25;;
7879;SDS011;3985;49.366;2.738;2022-08-19T07:14:46;15.25;;;15.25;;
7879;SDS011;3985;49.366;2.738;2022-08-19T07:17:14;11.25;;;11.25;;
7879;SDS011;3985;49.366;2.738;2022-08-19T07:19:43;19.25;;;16.75;;
7879;SDS011;3985;49.366;2.738;2022-08-19T07:22:10;15.75;;;13.50;;
7879;SDS011;3985;49.366;2.738;2022-08-19T07:24:39;16.25;;;12.25;;
7879;SDS011;3985;49.366;2.738;2022-08-19T07:27:06;18.25;;;16.75;;
7879;SDS011;3985;49.366;2.738;2022-08-19T07:29:35;19.00;;;16.00;;
7879;SDS011;3985;49.366;2.738;2022-08-19T07:32:03;13.25;;;11.50;;
7879;SDS011;3985;49.366;2.738;2022-08-19T07:34:31;14.50;;;13.00;;
7879;SDS011;3985;49.366;2.738;2022-08-19T07:37:02;12.50;;;12.50;;
7879;SDS011;3985;49.366;2.738;2022-08-19T07:39:30;10.75;;;10.25;;
7879;SDS011;3985;49.366;2.738;2022-08-19T07:42:02;11.50;;;11.50;;
7879;SDS011;3985;49.366;2.738;2022-08-19T07:44:32;12.25;;;12.00;;
7879;SDS011;3985;49.366;2.738;2022-08-19T07:47:00;11.75;;;11.75;;
7879;SDS011;3985;49.366;2.738;2022-08-19T07:49:28;14.00;;;13.50;;
7879;SDS011;3985;49.366;2.738;2022-08-19T07:51:57;9.75;;;9.75;;
7879;SDS011;3985;49.366;2.738;2022-08-19T07:54:29;11.00;;;11.00;;
7879;SDS011;3985;49.366;2.738;2022-08-19T07:57:01;12.25;;;11.00;;
7879;SDS011;3985;49.366;2.738;2022-08-19T07:59:29;8.75;;;8.75;;
7879;SDS011;3985;49.366;2.738;2022-08-19T08:01:57;11.75;;;10.25;;
7879;SDS011;3985;49.366;2.738;2022-08-19T08:04:25;13.00;;;11.00;;
7879;SDS011;3985;49.366;2.738;2022-08-19T08:07:10;11.00;;;9.50;;
7879;SDS011;3985;49.366;2.738;2022-08-19T08:09:55;8.60;;;8.60;;
7879;SDS011;3985;49.366;2.738;2022-08-19T08:12:25;8.80;;;8.80;;
7879;SDS011;3985;49.366;2.738;2022-08-19T08:14:55;9.80;;;9.20;;
7879;SDS011;3985;49.366;2.738;2022-08-19T08:17:27;10.00;;;8.50;;
7879;SDS011;3985;49.366;2.738;2022-08-19T08:19:55;9.00;;;7.60;;
7879;SDS011;3985;49.366;2.738;2022-08-19T08:22:23;6.40;;;6.00;;
7879;SDS011;3985;49.366;2.738;2022-08-19T08:25:09;6.00;;;6.00;;
7879;SDS011;3985;49.366;2.738;2022-08-19T08:27:40;10.20;;;7.40;;
7879;SDS011;3985;49.366;2.738;2022-08-19T08:30:09;10.40;;;7.20;;
7879;SDS011;3985;49.366;2.738;2022-08-19T08:32:38;8.20;;;6.80;;
7879;SDS011;3985;49.366;2.738;2022-08-19T08:35:07;6.80;;;6.80;;
7879;SDS011;3985;49.366;2.738;2022-08-19T08:37:37;6.40;;;6.20;;
7879;SDS011;3985;49.366;2.738;2022-08-19T08:40:05;6.40;;;6.00;;
7879;SDS011;3985;49.366;2.738;2022-08-19T08:42:36;5.00;;;5.00;;
7879;SDS011;3985;49.366;2.738;2022-08-19T08:45:12;8.00;;;8.00;;
7879;SDS011;3985;49.366;2.738;2022-08-19T08:47:44;6.80;;;6.80;;
7879;SDS011;3985;49.366;2.738;2022-08-19T08:50:15;6.20;;;6.20;;
7879;SDS011;3985;49.366;2.738;2022-08-19T08:52:45;7.40;;;5.80;;
7879;SDS011;3985;49.366;2.738;2022-08-19T08:55:17;8.00;;;6.20;;
7879;SDS011;3985;49.366;2.738;2022-08-19T08:57:51;6.00;;;6.00;;
7879;SDS011;3985;49.366;2.738;2022-08-19T09:00:21;6.80;;;5.80;;
7879;SDS011;3985;49.366;2.738;2022-08-19T09:02:51;5.00;;;4.00;;
7879;SDS011;3985;49.366;2.738;2022-08-19T09:05:20;4.60;;;3.20;;
7879;SDS011;3985;49.366;2.738;2022-08-19T09:07:49;4.80;;;4.80;;
7879;SDS011;3985;49.366;2.738;2022-08-19T09:10:25;5.40;;;4.80;;
7879;SDS011;3985;49.366;2.738;2022-08-19T09:12:59;4.60;;;4.00;;
7879;SDS011;3985;49.366;2.738;2022-08-19T09:15:32;6.00;;;6.00;;
7879;SDS011;3985;49.366;2.738;2022-08-19T09:18:03;2.00;;;2.00;;
7879;SDS011;3985;49.366;2.738;2022-08-19T09:20:31;5.80;;;4.00;;
7879;SDS011;3985;49.366;2.738;2022-08-19T09:22:59;5.00;;;5.00;;
7879;SDS011;3985;49.366;2.738;2022-08-19T09:25:26;3.00;;;3.00;;
7879;SDS011;3985;49.366;2.738;2022-08-19T09:27:54;4.80;;;4.00;;
7879;SDS011;3985;49.366;2.738;2022-08-19T09:30:24;5.40;;;3.80;;
7879;SDS011;3985;49.366;2.738;2022-08-19T09:32:52;2.80;;;2.80;;
7879;SDS011;3985;49.366;2.738;2022-08-19T09:35:21;3.40;;;3.40;;
7879;SDS011;3985;49.366;2.738;2022-08-19T09:37:51;3.00;;;3.00;;
7879;SDS011;3985;49.366;2.738;2022-08-19T09:40:19;5.00;;;3.40;;
7879;SDS011;3985;49.366;2.738;2022-08-19T09:42:47;3.00;;;3.00;;
7879;SDS011;3985;49.366;2.738;2022-08-19T09:45:14;3.60;;;3.60;;
7879;SDS011;3985;49.366;2.738;2022-08-19T09:47:43;2.40;;;2.40;;
7879;SDS011;3985;49.366;2.738;2022-08-19T09:50:11;2.00;;;2.00;;
7879;SDS011;3985;49.366;2.738;2022-08-19T09:52:39;3.40;;;3.40;;
7879;SDS011;3985;49.366;2.738;2022-08-19T09:55:08;1.00;;;1.00;;
7879;SDS011;3985;49.366;2.738;2022-08-19T09:57:35;5.00;;;4.00;;
7879;SDS011;3985;49.366;2.738;2022-08-19T10:00:03;3.60;;;3.60;;
7879;SDS011;3985;49.366;2.738;2022-08-19T10:02:32;3.60;;;3.60;;
7879;SDS011;3985;49.366;2.738;2022-08-19T10:05:01;3.00;;;3.00;;
7879;SDS011;3985;49.366;2.738;2022-08-19T10:07:46;3.40;;;3.40;;
7879;SDS011;3985;49.366;2.738;2022-08-19T10:10:13;4.00;;;4.00;;
7879;SDS011;3985;49.366;2.738;2022-08-19T10:12:42;4.00;;;4.00;;
7879;SDS011;3985;49.366;2.738;2022-08-19T10:15:12;4.00;;;4.00;;
7879;SDS011;3985;49.366;2.738;2022-08-19T10:17:40;5.40;;;5.40;;
7879;SDS011;3985;49.366;2.738;2022-08-19T10:20:10;5.40;;;4.00;;
7879;SDS011;3985;49.366;2.738;2022-08-19T10:22:37;2.60;;;2.60;;
7879;SDS011;3985;49.366;2.738;2022-08-19T10:25:06;5.00;;;5.00;;
7879;SDS011;3985;49.366;2.738;2022-08-19T10:27:34;5.20;;;4.80;;
7879;SDS011;3985;49.366;2.738;2022-08-19T10:30:02;4.00;;;4.00;;
7879;SDS011;3985;49.366;2.738;2022-08-19T10:32:30;3.00;;;3.00;;
7879;SDS011;3985;49.366;2.738;2022-08-19T10:34:57;3.80;;;3.80;;
7879;SDS011;3985;49.366;2.738;2022-08-19T10:37:27;5.60;;;5.60;;
7879;SDS011;3985;49.366;2.738;2022-08-19T10:39:55;5.00;;;3.00;;
7879;SDS011;3985;49.366;2.738;2022-08-19T10:42:22;2.60;;;2.60;;
7879;SDS011;3985;49.366;2.738;2022-08-19T10:44:50;2.80;;;2.80;;
7879;SDS011;3985;49.366;2.738;2022-08-19T10:47:17;6.20;;;6.20;;
7879;SDS011;3985;49.366;2.738;2022-08-19T10:49:45;7.80;;;4.40;;
7879;SDS011;3985;49.366;2.738;2022-08-19T10:52:34;6.00;;;6.00;;
7879;SDS011;3985;49.366;2.738;2022-08-19T10:55:05;4.80;;;4.80;;
7879;SDS011;3985;49.366;2.738;2022-08-19T10:57:50;4.80;;;4.80;;
7879;SDS011;3985;49.366;2.738;2022-08-19T11:00:18;3.80;;;3.80;;
7879;SDS011;3985;49.366;2.738;2022-08-19T11:02:48;3.40;;;3.40;;
7879;SDS011;3985;49.366;2.738;2022-08-19T11:05:15;5.60;;;3.80;;
7879;SDS011;3985;49.366;2.738;2022-08-19T11:07:45;3.00;;;3.00;;
7879;SDS011;3985;49.366;2.738;2022-08-19T11:10:13;3.60;;;2.40;;
7879;SDS011;3985;49.366;2.738;2022-08-19T11:12:44;3.00;;;3.00;;
7879;SDS011;3985;49.366;2.738;2022-08-19T11:15:13;3.80;;;2.00;;
7879;SDS011;3985;49.366;2.738;2022-08-19T11:17:40;5.00;;;2.00;;
7879;SDS011;3985;49.366;2.738;2022-08-19T11:20:09;2.00;;;2.00;;
7879;SDS011;3985;49.366;2.738;2022-08-19T11:22:38;2.00;;;2.00;;
7879;SDS011;3985;49.366;2.738;2022-08-19T11:25:08;3.20;;;2.00;;
7879;SDS011;3985;49.366;2.738;2022-08-19T11:27:37;1.20;;;1.20;;
7879;SDS011;3985;49.366;2.738;2022-08-19T11:30:07;3.60;;;2.00;;
7879;SDS011;3985;49.366;2.738;2022-08-19T11:32:35;2.00;;;2.00;;
7879;SDS011;3985;49.366;2.738;2022-08-19T11:35:02;1.00;;;1.00;;
7879;SDS011;3985;49.366;2.738;2022-08-19T11:37:30;1.00;;;1.00;;
7879;SDS011;3985;49.366;2.738;2022-08-19T11:40:04;1.00;;;1.00;;
7879;SDS011;3985;49.366;2.738;2022-08-19T11:42:34;0.40;;;0.40;;
7879;SDS011;3985;49.366;2.738;2022-08-19T11:45:19;0.00;;;0.00;;
7879;SDS011;3985;49.366;2.738;2022-08-19T11:47:46;1.60;;;1.00;;
7879;SDS011;3985;49.366;2.738;2022-08-19T11:50:14;1.00;;;1.00;;
7879;SDS011;3985;49.366;2.738;2022-08-19T11:52:42;1.00;;;1.00;;
7879;SDS011;3985;49.366;2.738;2022-08-19T11:55:11;1.00;;;1.00;;
7879;SDS011;3985;49.366;2.738;2022-08-19T11:57:39;0.40;;;0.40;;
7879;SDS011;3985;49.366;2.738;2022-08-19T12:00:08;1.00;;;1.00;;
7879;SDS011;3985;49.366;2.738;2022-08-19T12:02:37;0.40;;;0.40;;
7879;SDS011;3985;49.366;2.738;2022-08-19T12:05:06;0.40;;;0.40;;
7879;SDS011;3985;49.366;2.738;2022-08-19T12:07:33;2.20;;;0.80;;
7879;SDS011;3985;49.366;2.738;2022-08-19T12:10:01;1.00;;;1.00;;
7879;SDS011;3985;49.366;2.738;2022-08-19T12:12:30;0.00;;;0.00;;
7879;SDS011;3985;49.366;2.738;2022-08-19T12:14:57;0.60;;;0.60;;
7879;SDS011;3985;49.366;2.738;2022-08-19T12:17:25;0.80;;;0.80;;
7879;SDS011;3985;49.366;2.738;2022-08-19T12:19:53;0.00;;;0.00;;
7879;SDS011;3985;49.366;2.738;2022-08-19T12:22:21;2.00;;;0.00;;
7879;SDS011;3985;49.366;2.738;2022-08-19T12:24:49;0.00;;;0.00;;
7879;SDS011;3985;49.366;2.738;2022-08-19T12:27:18;0.00;;;0.00;;
7879;SDS011;3985;49.366;2.738;2022-08-19T12:29:48;0.00;;;0.00;;
7879;SDS011;3985;49.366;2.738;2022-08-19T12:32:15;0.60;;;0.60;;
7879;SDS011;3985;49.366;2.738;2022-08-19T12:34:43;0.40;;;0.40;;
7879;SDS011;3985;49.366;2.738;2022-08-19T12:37:12;0.40;;;0.40;;
7879;SDS011;3985;49.366;2.738;2022-08-19T12:39:41;1.20;;;0.80;;
7879;SDS011;3985;49.366;2.738;2022-08-19T12:42:09;1.00;;;1.00;;
7879;SDS011;3985;49.366;2.738;2022-08-19T12:44:37;2.00;;;1.00;;
7879;SDS011;3985;49.366;2.738;2022-08-19T12:47:08;0.80;;;0.80;;
7879;SDS011;3985;49.366;2.738;2022-08-19T12:49:37;3.20;;;1.00;;
7879;SDS011;3985;49.366;2.738;2022-08-19T12:52:05;1.00;;;1.00;;
7879;SDS011;3985;49.366;2.738;2022-08-19T12:54:33;1.40;;;1.00;;
7879;SDS011;3985;49.366;2.738;2022-08-19T12:57:04;0.80;;;0.80;;
7879;SDS011;3985;49.366;2.738;2022-08-19T12:59:32;0.00;;;0.00;;
7879;SDS011;3985;49.366;2.738;2022-08-19T13:02:01;0.40;;;0.40;;
7879;SDS011;3985;49.366;2.738;2022-08-19T13:04:31;2.60;;;0.80;;
7879;SDS011;3985;49.366;2.738;2022-08-19T13:07:00;0.60;;;0.60;;
7879;SDS011;3985;49.366;2.738;2022-08-19T13:09:28;2.80;;;1.60;;
7879;SDS011;3985;49.366;2.738;2022-08-19T13:11:56;2.00;;;2.00;;
7879;SDS011;3985;49.366;2.738;2022-08-19T13:14:23;1.00;;;1.00;;
7879;SDS011;3985;49.366;2.738;2022-08-19T13:16:51;0.60;;;0.60;;
7879;SDS011;3985;49.366;2.738;2022-08-19T13:19:18;1.40;;;1.40;;
7879;SDS011;3985;49.366;2.738;2022-08-19T13:21:50;2.40;;;0.80;;
7879;SDS011;3985;49.366;2.738;2022-08-19T13:24:18;1.00;;;1.00;;
7879;SDS011;3985;49.366;2.738;2022-08-19T13:26:46;1.00;;;1.00;;
7879;SDS011;3985;49.366;2.738;2022-08-19T13:29:13;2.80;;;1.40;;
7879;SDS011;3985;49.366;2.738;2022-08-19T13:31:58;0.60;;;0.60;;
7879;SDS011;3985;49.366;2.738;2022-08-19T13:34:43;0.60;;;0.60;;
7879;SDS011;3985;49.366;2.738;2022-08-19T13:37:13;0.60;;;0.60;;
7879;SDS011;3985;49.366;2.738;2022-08-19T13:39:40;1.60;;;1.60;;
7879;SDS011;3985;49.366;2.738;2022-08-19T13:42:07;0.00;;;0.00;;
7879;SDS011;3985;49.366;2.738;2022-08-19T13:44:35;0.40;;;0.40;;
7879;SDS011;3985;49.366;2.738;2022-08-19T13:47:03;1.00;;;1.00;;
7879;SDS011;3985;49.366;2.738;2022-08-19T13:49:33;0.80;;;0.80;;
7879;SDS011;3985;49.366;2.738;2022-08-19T13:52:02;1.80;;;1.80;;
7879;SDS011;3985;49.366;2.738;2022-08-19T13:54:31;0.80;;;0.80;;
7879;SDS011;3985;49.366;2.738;2022-08-19T13:56:59;3.20;;;0.80;;
7879;SDS011;3985;49.366;2.738;2022-08-19T13:59:26;0.00;;;0.00;;
7879;SDS011;3985;49.366;2.738;2022-08-19T14:01:57;0.00;;;0.00;;
7879;SDS011;3985;49.366;2.738;2022-08-19T14:04:26;0.60;;;0.60;;
7879;SDS011;3985;49.366;2.738;2022-08-19T14:06:53;0.00;;;0.00;;
7879;SDS011;3985;49.366;2.738;2022-08-19T14:09:21;0.00;;;0.00;;
7879;SDS011;3985;49.366;2.738;2022-08-19T14:11:49;0.20;;;0.20;;
7879;SDS011;3985;49.366;2.738;2022-08-19T14:14:17;0.40;;;0.00;;
7879;SDS011;3985;49.366;2.738;2022-08-19T14:16:44;0.40;;;0.40;;
7879;SDS011;3985;49.366;2.738;2022-08-19T14:19:12;0.20;;;0.20;;
7879;SDS011;3985;49.366;2.738;2022-08-19T14:21:39;0.40;;;0.40;;
7879;SDS011;3985;49.366;2.738;2022-08-19T14:24:06;0.60;;;0.60;;
7879;SDS011;3985;49.366;2.738;2022-08-19T14:26:34;0.00;;;0.00;;
7879;SDS011;3985;49.366;2.738;2022-08-19T14:29:02;0.60;;;0.60;;
7879;SDS011;3985;49.366;2.738;2022-08-19T14:31:30;0.00;;;0.00;;
7879;SDS011;3985;49.366;2.738;2022-08-19T14:33:57;0.40;;;0.40;;
7879;SDS011;3985;49.366;2.738;2022-08-19T14:36:25;0.80;;;0.80;;
7879;SDS011;3985;49.366;2.738;2022-08-19T14:38:52;1.60;;;1.60;;
7879;SDS011;3985;49.366;2.738;2022-08-19T14:41:20;0.80;;;0.80;;
7879;SDS011;3985;49.366;2.738;2022-08-19T14:43:49;0.80;;;0.80;;
7879;SDS011;3985;49.366;2.738;2022-08-19T14:46:20;0.80;;;0.80;;
7879;SDS011;3985;49.366;2.738;2022-08-19T14:48:50;2.40;;;0.80;;
7879;SDS011;3985;49.366;2.738;2022-08-19T14:51:18;1.20;;;1.20;;
7879;SDS011;3985;49.366;2.738;2022-08-19T14:53:46;0.40;;;0.40;;
7879;SDS011;3985;49.366;2.738;2022-08-19T14:56:16;1.80;;;1.80;;
7879;SDS011;3985;49.366;2.738;2022-08-19T14:58:45;1.40;;;1.40;;
7879;SDS011;3985;49.366;2.738;2022-08-19T15:01:12;2.40;;;1.00;;
7879;SDS011;3985;49.366;2.738;2022-08-19T15:03:41;1.20;;;1.20;;
7879;SDS011;3985;49.366;2.738;2022-08-19T15:06:09;1.00;;;1.00;;
7879;SDS011;3985;49.366;2.738;2022-08-19T15:08:37;1.00;;;1.00;;
7879;SDS011;3985;49.366;2.738;2022-08-19T15:11:07;1.00;;;1.00;;